createdAt,value
2023-03-06T00:01:23.940Z,6.73
2023-03-06T00:06:23.941Z,6.71
2023-03-06T00:11:23.941Z,6.72
2023-03-06T00:16:23.929Z,6.78
2023-03-06T00:21:29.531Z,6.75
2023-03-06T00:26:23.968Z,6.8
2023-03-06T00:31:23.943Z,6.96
2023-03-06T00:36:23.943Z,6.94
2023-03-06T00:41:24.259Z,7.13
2023-03-06T00:46:23.946Z,7.2
2023-03-06T00:51:23.933Z,7.2
2023-03-06T00:56:24.102Z,7.16
2023-03-06T01:01:23.946Z,7.18
2023-03-06T01:06:23.946Z,7.17
2023-03-06T01:11:35.440Z,7.16
2023-03-06T01:16:23.936Z,7.14
2023-03-06T01:21:24.096Z,7.16
2023-03-06T01:26:23.991Z,7.14
2023-03-06T01:31:24.294Z,7.16
2023-03-06T01:36:23.949Z,7.17
2023-03-06T01:41:23.939Z,7.18
2023-03-06T01:46:23.951Z,7.21
2023-03-06T01:51:23.940Z,7.12
2023-03-06T01:56:29.542Z,7.19
2023-03-06T02:01:24.016Z,7.22
2023-03-06T02:06:23.953Z,7.25
2023-03-06T02:11:23.954Z,7.02
2023-03-06T02:16:23.944Z,7.01
2023-03-06T02:21:23.955Z,6.89
2023-03-06T02:26:23.944Z,6.9
2023-03-06T02:31:23.957Z,7.05
2023-03-06T02:36:24.139Z,7.18
2023-03-06T02:41:29.780Z,7.19
2023-03-06T02:46:23.959Z,7.05
2023-03-06T02:51:23.946Z,6.95
2023-03-06T02:56:23.967Z,6.87
2023-03-06T03:01:23.979Z,6.97
2023-03-06T03:06:23.968Z,7
2023-03-06T03:11:23.961Z,7.06
2023-03-06T03:16:23.949Z,7.09
2023-03-06T03:21:23.963Z,7.19
2023-03-06T03:26:23.950Z,7.19
2023-03-06T03:31:24.239Z,7.14
2023-03-06T03:36:23.963Z,7.14
2023-03-06T03:41:23.964Z,7.12
2023-03-06T03:46:24.333Z,7.01
2023-03-06T03:51:23.953Z,6.87
2023-03-06T03:56:23.966Z,6.77
2023-03-06T04:01:24.289Z,6.73
2023-03-06T04:06:24.001Z,6.74
2023-03-06T04:11:23.966Z,6.87
2023-03-06T04:16:23.968Z,6.87
2023-03-06T04:21:23.969Z,6.87
2023-03-06T04:26:23.957Z,6.9
2023-03-06T04:31:23.968Z,6.97
2023-03-06T04:36:24.116Z,6.94
2023-03-06T04:41:24.111Z,6.94
2023-03-06T04:46:23.971Z,6.98
2023-03-06T04:51:24.105Z,6.99
2023-03-06T04:56:23.973Z,6.88
2023-03-06T05:01:24.106Z,6.79
2023-03-06T05:06:29.560Z,6.76
2023-03-06T05:11:23.974Z,6.76
2023-03-06T05:16:23.973Z,6.66
2023-03-06T05:21:23.975Z,6.52
2023-03-06T05:26:24.149Z,6.49
2023-03-06T05:31:23.977Z,6.49
2023-03-06T05:36:23.965Z,6.62
2023-03-06T05:41:24.154Z,6.67
2023-03-06T05:46:23.977Z,6.66
2023-03-06T05:51:29.554Z,6.57
2023-03-06T05:56:23.979Z,6.53
2023-03-06T06:01:24.098Z,6.53
2023-03-06T06:06:23.979Z,6.51
2023-03-06T06:11:23.981Z,6.55
2023-03-06T06:16:23.979Z,6.62
2023-03-06T06:21:23.982Z,6.68
2023-03-06T06:26:24.050Z,6.8
2023-03-06T06:31:23.982Z,6.87
2023-03-06T06:36:23.970Z,6.86
2023-03-06T06:41:29.571Z,7.13
2023-03-06T06:46:29.569Z,7.29
2023-03-06T06:51:23.972Z,7.28
2023-03-06T06:56:24.230Z,7.29
2023-03-06T07:01:24.135Z,7.48
2023-03-06T07:06:23.985Z,7.36
2023-03-06T07:11:24.034Z,7.37
2023-03-06T07:16:24.301Z,7.37
2023-03-06T07:21:23.988Z,7.39
2023-03-06T07:26:23.976Z,7.51
2023-03-06T07:31:29.577Z,7.52
2023-03-06T07:36:23.977Z,7.74
2023-03-06T07:41:23.990Z,7.87
2023-03-06T07:46:23.989Z,7.85
2023-03-06T07:51:24.018Z,8.02
2023-03-06T07:56:24.164Z,8.27
2023-03-06T08:01:24.145Z,8.54
2023-03-06T08:06:24.246Z,8.5
2023-03-06T08:11:23.981Z,8.3
2023-03-06T08:16:23.994Z,8.17
2023-03-06T08:21:29.581Z,7.93
2023-03-06T08:26:23.983Z,8.18
2023-03-06T08:31:24.083Z,8.26
2023-03-06T08:36:24.047Z,8.47
2023-03-06T08:41:23.996Z,8.78
2023-03-06T08:46:23.996Z,8.63
2023-03-06T08:51:23.999Z,8.56
2023-03-06T08:56:24.195Z,8.22
2023-03-06T09:01:23.989Z,8.1
2023-03-06T09:06:24.106Z,8.14
2023-03-06T09:11:29.821Z,8.76
2023-03-06T09:16:24.001Z,8.8
2023-03-06T09:21:24.002Z,9.08
2023-03-06T09:26:23.990Z,9.16
2023-03-06T09:31:24.127Z,8.99
2023-03-06T09:36:23.992Z,9.31
2023-03-06T09:41:24.004Z,10.07
2023-03-06T09:46:24.004Z,10.34
2023-03-06T09:51:24.006Z,10.51
2023-03-06T09:56:24.315Z,10.78
2023-03-06T10:01:24.018Z,10.69
2023-03-06T10:06:24.073Z,10.42
2023-03-06T10:16:24.008Z,10.17
2023-03-06T10:21:24.198Z,9.66
2023-03-06T10:26:24.076Z,9.39
2023-03-06T10:31:24.014Z,9.22
2023-03-06T10:36:24.001Z,8.91
2023-03-06T10:41:24.014Z,8.51
2023-03-06T10:46:24.003Z,8.1
2023-03-06T10:51:24.015Z,8.25
2023-03-06T10:56:24.044Z,9.1
2023-03-06T11:01:24.091Z,9.46
2023-03-06T11:06:24.019Z,9.59
2023-03-06T11:11:24.006Z,9.76
2023-03-06T11:16:24.019Z,9.83
2023-03-06T11:21:24.020Z,9.29
2023-03-06T11:26:24.021Z,9.07
2023-03-06T11:31:24.022Z,9.06
2023-03-06T11:36:24.376Z,8.89
2023-03-06T11:41:24.024Z,9.1
2023-03-06T11:46:24.013Z,8.91
2023-03-06T11:51:24.116Z,8.82
2023-03-06T11:56:24.025Z,9.1
2023-03-06T12:01:24.015Z,9.25
2023-03-06T12:06:24.027Z,10.17
2023-03-06T12:11:24.130Z,10.54
2023-03-06T12:16:24.027Z,10.04
2023-03-06T12:21:24.018Z,10.45
2023-03-06T12:26:24.148Z,10.51
2023-03-06T12:41:36.019Z,10.68
2023-03-06T12:46:36.010Z,11.02
2023-03-06T12:51:26.763Z,11.24
2023-03-06T12:56:26.763Z,11
2023-03-06T13:01:26.754Z,11.15
2023-03-06T13:06:26.766Z,10.81
2023-03-06T13:11:26.755Z,10.55
2023-03-06T13:16:26.766Z,10.04
2023-03-06T13:21:26.768Z,9.96
2023-03-06T13:31:26.770Z,10.07
2023-03-06T13:36:26.760Z,9.91
2023-03-06T13:41:26.771Z,9.97
2023-03-06T13:46:26.761Z,10.02
2023-03-06T13:51:26.772Z,10.37
2023-03-06T13:56:26.774Z,10.76
2023-03-06T14:01:26.764Z,10.92
2023-03-06T14:06:26.775Z,10.96
2023-03-06T14:11:26.765Z,10.97
2023-03-06T14:16:26.776Z,10.5
2023-03-06T14:21:26.777Z,10.18
2023-03-06T14:26:26.778Z,10.05
2023-03-06T14:31:26.780Z,9.75
2023-03-06T14:36:26.770Z,9.89
2023-03-06T14:41:26.780Z,10.02
2023-03-06T14:46:26.771Z,9.74
2023-03-06T14:51:26.783Z,9.3
2023-03-06T14:56:26.784Z,9.29
2023-03-06T15:01:26.773Z,9.47
2023-03-06T15:06:26.785Z,9.39
2023-03-06T15:11:26.775Z,9.41
2023-03-06T15:16:26.786Z,9.35
2023-03-06T15:21:26.786Z,9.33
2023-03-06T15:26:26.788Z,9.32
2023-03-06T15:31:26.811Z,9.42
2023-03-06T15:36:26.779Z,9.53
2023-03-06T15:41:36.050Z,9.57
2023-03-06T15:46:26.779Z,9.64
2023-03-06T15:51:26.792Z,9.6
2023-03-06T15:56:26.792Z,9.64
2023-03-06T16:01:26.783Z,9.41
2023-03-06T16:06:26.793Z,9.47
2023-03-06T16:11:26.784Z,9.58
2023-03-06T16:16:26.796Z,9.42
2023-03-06T16:21:26.785Z,9.43
2023-03-06T16:26:26.798Z,9.43
2023-03-06T16:31:26.798Z,9.35
2023-03-06T16:36:26.788Z,9.33
2023-03-06T16:41:26.841Z,9.37
2023-03-06T16:46:26.789Z,9.37
2023-03-06T16:51:26.800Z,9.1
2023-03-06T16:56:26.802Z,8.78
2023-03-06T17:01:26.802Z,8.62
2023-03-06T17:06:26.803Z,8.45
2023-03-06T17:11:26.793Z,8.38
2023-03-06T17:16:26.804Z,8.32
2023-03-06T17:21:26.794Z,8.35
2023-03-06T17:26:26.805Z,8.29
2023-03-06T17:31:26.806Z,8.42
2023-03-06T17:36:26.797Z,8.24
2023-03-06T17:41:26.807Z,8.07
2023-03-06T17:46:26.798Z,7.96
2023-03-06T17:51:26.809Z,8.03
2023-03-06T17:56:26.809Z,7.82
2023-03-06T18:01:26.811Z,7.77
2023-03-06T18:06:26.811Z,7.88
2023-03-06T18:11:26.801Z,7.92
2023-03-06T18:16:26.813Z,7.93
2023-03-06T18:21:26.802Z,7.97
2023-03-06T18:26:26.862Z,7.96
2023-03-06T18:31:26.814Z,7.97
2023-03-06T18:36:26.816Z,7.89
2023-03-06T18:41:26.815Z,7.85
2023-03-06T18:46:26.805Z,7.78
2023-03-06T18:51:26.816Z,7.7
2023-03-06T18:56:26.806Z,7.67
2023-03-06T19:01:26.819Z,7.66
2023-03-06T19:06:26.818Z,7.74
2023-03-06T19:11:26.808Z,7.71
2023-03-06T19:16:26.820Z,7.78
2023-03-06T19:21:26.810Z,7.75
2023-03-06T19:26:26.821Z,7.68
2023-03-06T19:31:26.821Z,7.66
2023-03-06T19:36:26.823Z,7.59
2023-03-06T19:41:26.824Z,7.47
2023-03-06T19:46:26.812Z,7.39
2023-03-06T19:51:26.825Z,7.36
2023-03-06T19:56:26.814Z,7.31
2023-03-06T20:01:26.826Z,7.43
2023-03-06T20:06:26.826Z,7.4
2023-03-06T20:11:26.816Z,7.38
2023-03-06T20:16:26.828Z,7.34
2023-03-06T20:21:26.817Z,7.32
2023-03-06T20:26:26.828Z,7.34
2023-03-06T20:31:26.828Z,7.35
2023-03-06T20:36:26.830Z,7.42
2023-03-06T20:41:26.831Z,7.41
2023-03-06T20:46:26.820Z,7.46
2023-03-06T20:51:26.831Z,7.41
2023-03-06T20:56:26.821Z,7.36
2023-03-06T21:01:26.880Z,7.33
2023-03-06T21:06:26.833Z,7.3
2023-03-06T21:11:26.834Z,7.23
2023-03-06T21:16:26.835Z,7.27
2023-03-06T21:21:26.824Z,7.31
2023-03-06T21:26:26.835Z,7.29
2023-03-06T21:31:26.825Z,7.23
2023-03-06T21:36:26.836Z,7.19
2023-03-06T21:41:26.837Z,7.16
2023-03-06T21:46:26.826Z,7.16
2023-03-06T21:51:26.838Z,7.09
2023-03-06T21:56:26.828Z,7.12
2023-03-06T22:01:26.839Z,7.15
2023-03-06T22:06:26.840Z,7.1
2023-03-06T22:11:26.840Z,7.04
2023-03-06T22:16:26.842Z,7.03
2023-03-06T22:21:26.831Z,6.95
2023-03-06T22:26:26.842Z,6.95
2023-03-06T22:31:26.831Z,7.01
2023-03-06T22:36:26.844Z,7.03
2023-03-06T22:41:26.843Z,6.96
2023-03-06T22:46:26.834Z,6.93
2023-03-06T22:51:26.845Z,6.91
2023-03-06T22:56:26.835Z,6.87
2023-03-06T23:01:26.847Z,6.88
2023-03-06T23:06:26.846Z,6.88
2023-03-06T23:11:26.848Z,7
2023-03-06T23:16:26.847Z,7.03
2023-03-06T23:21:26.838Z,7.03
2023-03-06T23:26:36.107Z,6.96
2023-03-06T23:31:26.839Z,6.89
2023-03-06T23:36:26.849Z,6.85
2023-03-06T23:41:26.850Z,6.93
2023-03-06T23:46:26.841Z,6.97
2023-03-06T23:51:26.852Z,6.94
2023-03-06T23:56:26.842Z,6.92
